Terminal Aerodrome Forecast
Issued by NWS Paducah, KY

Home | Current Version | Previous Version | Graphics & Text | Print | Product List | Glossary On
Versions: 1 2 3 4 5 6 7 8 9 10 11 12 13 14 15 16 17 18 19 20 21
000
FTUS43 KPAH 011100
TAFPAH
TAF
KPAH 011120Z 0112/0212 20008KT P6SM SCT010 BKN060
      TEMPO 0112/0115 BKN010
     FM011500 21012G20KT P6SM SCT040 BKN150
     FM012300 21008KT P6SM BKN150
     FM020600 21006KT P6SM SCT030 BKN060=

USA.gov is the U.S. government's official web portal to all federal, state and local government web resources and services.